Time;durP1;ratioP1;P1;durP2;ratioP2;P2;SDS_P1;SDS_P2;PMS_P1;PMS_P2;Temp;Humidity;BMP_temperature;BMP_pressure;BME280_temperature;BME280_humidity;BME280_pressure;Samples;Min_cycle;Max_cycle;Signal;HPM_P1;HPM_P2
2021/04/06 00:02:13;;;;;;;7.50;3.30;;;;;;;0.58;73.63;100181.78;5060695;28;20825;-70
2021/04/06 00:04:41;;;;;;;8.33;3.60;;;;;;;0.78;73.35;100191.97;5060533;28;20411;-69
2021/04/06 00:07:09;;;;;;;6.57;3.70;;;;;;;0.80;73.30;100193.78;5060657;28;20412;-71
2021/04/06 00:09:36;;;;;;;6.90;4.23;;;;;;;0.96;72.91;100197.84;5061491;28;20493;-68
2021/04/06 00:12:04;;;;;;;5.40;3.20;;;;;;;1.09;72.42;100188.91;5061126;28;20411;-68
2021/04/06 00:14:30;;;;;;;5.87;3.40;;;;;;;0.83;72.97;100200.75;5060214;28;20736;-69
2021/04/06 00:16:57;;;;;;;7.60;3.80;;;;;;;0.69;73.33;100196.72;5060986;28;20716;-66
2021/04/06 00:19:25;;;;;;;7.10;3.60;;;;;;;0.83;73.39;100190.47;5060274;28;20526;-67
2021/04/06 00:21:52;;;;;;;11.50;4.10;;;;;;;1.18;71.79;100189.28;5060300;28;20423;-68
2021/04/06 00:24:22;;;;;;;4.63;3.40;;;;;;;1.13;72.61;100192.50;5068894;28;20494;-68
2021/04/06 00:26:53;;;;;;;10.53;3.30;;;;;;;0.86;72.67;100195.72;5065938;28;20463;-69
2021/04/06 00:29:20;;;;;;;6.00;3.93;;;;;;;0.76;73.28;100191.91;5060625;28;20474;-69
2021/04/06 00:31:48;;;;;;;7.00;3.03;;;;;;;1.32;71.60;100179.53;5059670;28;20459;-67
2021/04/06 00:34:14;;;;;;;9.50;3.67;;;;;;;1.13;71.65;100190.78;5060252;28;20490;-66
2021/04/06 00:36:40;;;;;;;4.57;3.77;;;;;;;0.95;72.39;100190.97;5060321;28;20871;-66
2021/04/06 00:39:06;;;;;;;7.40;3.40;;;;;;;0.97;72.29;100189.31;5061020;28;20503;-67
2021/04/06 00:41:31;;;;;;;8.80;3.57;;;;;;;0.97;71.96;100184.19;5059977;28;20180;-69
2021/04/06 00:43:57;;;;;;;3.87;3.40;;;;;;;0.50;74.02;100185.69;5061217;28;20470;-66
2021/04/06 00:46:27;;;;;;;5.23;3.33;;;;;;;0.74;73.47;100184.97;5059593;28;20181;-65
2021/04/06 00:48:55;;;;;;;5.57;3.20;;;;;;;0.84;72.97;100189.66;5060350;28;20165;-65
2021/04/06 00:51:20;;;;;;;6.70;2.90;;;;;;;0.65;72.91;100180.31;5060097;28;20404;-67
2021/04/06 00:53:55;;;;;;;6.00;3.23;;;;;;;0.76;73.30;100181.66;5060056;28;20431;-65
2021/04/06 00:56:23;;;;;;;3.47;3.17;;;;;;;0.83;73.42;100182.78;5060478;28;20243;-66
2021/04/06 00:58:57;;;;;;;6.47;3.53;;;;;;;0.45;73.80;100180.41;5062951;28;20416;-64
2021/04/06 01:01:44;;;;;;;4.60;3.00;;;;;;;0.77;73.68;100185.97;5059429;28;20438;-65
2021/04/06 01:04:12;;;;;;;5.37;3.07;;;;;;;0.63;74.35;100187.09;5040138;28;20461;-65
2021/04/06 01:06:53;;;;;;;4.77;3.10;;;;;;;1.14;72.12;100184.84;5040571;28;20460;-65
2021/04/06 01:09:30;;;;;;;5.00;2.80;;;;;;;0.77;72.96;100196.25;5040169;28;20471;-65
2021/04/06 01:11:55;;;;;;;5.53;3.03;;;;;;;0.90;73.10;100197.59;5039581;28;20416;-65
2021/04/06 01:14:21;;;;;;;4.23;3.40;;;;;;;1.07;73.23;100190.56;5042405;28;20818;-65
2021/04/06 01:16:46;;;;;;;5.20;3.30;;;;;;;0.89;73.03;100190.69;5060162;28;20241;-64
2021/04/06 01:19:12;;;;;;;7.13;3.30;;;;;;;0.67;73.80;100191.53;5060515;28;20166;-65
2021/04/06 01:21:38;;;;;;;4.43;3.03;;;;;;;1.29;73.35;100188.84;5059132;28;20179;-64
2021/04/06 01:24:07;;;;;;;6.57;3.30;;;;;;;1.16;72.54;100190.94;5059986;28;20408;-64
2021/04/06 01:26:32;;;;;;;4.57;3.23;;;;;;;0.72;74.56;100190.03;5059763;28;20485;-66
2021/04/06 01:28:58;;;;;;;6.53;3.53;;;;;;;1.12;73.95;100180.47;5059294;28;20455;-64
2021/04/06 01:31:24;;;;;;;4.97;3.60;;;;;;;1.15;74.90;100178.91;5060062;28;20239;-65
2021/04/06 01:33:49;;;;;;;4.00;3.60;;;;;;;1.29;73.07;100174.28;5058707;28;20547;-65
2021/04/06 01:36:15;;;;;;;4.70;3.37;;;;;;;1.28;72.67;100180.22;5059654;28;20801;-65
2021/04/06 01:38:40;;;;;;;6.63;3.37;;;;;;;1.13;72.61;100169.38;5059788;28;20174;-65
2021/04/06 01:41:06;;;;;;;6.60;3.70;;;;;;;1.13;72.35;100174.53;5059592;28;20555;-65
2021/04/06 01:43:33;;;;;;;5.90;4.00;;;;;;;1.17;72.62;100161.00;5059365;28;20174;-65
2021/04/06 01:46:20;;;;;;;6.30;3.17;;;;;;;0.99;73.09;100162.03;5060145;28;20186;-65
2021/04/06 01:48:46;;;;;;;3.57;3.10;;;;;;;0.76;74.01;100165.38;5059249;28;20677;-66
2021/04/06 01:51:13;;;;;;;6.60;3.80;;;;;;;1.31;73.16;100164.97;5059355;28;20411;-65
2021/04/06 01:53:40;;;;;;;5.60;3.27;;;;;;;1.56;72.25;100163.28;5059308;28;20672;-65
2021/04/06 01:56:10;;;;;;;5.57;3.33;;;;;;;1.38;72.71;100154.91;5073652;28;20814;-64
2021/04/06 01:58:38;;;;;;;4.10;2.80;;;;;;;1.45;72.97;100156.91;5057301;28;20905;-65
2021/04/06 02:01:19;;;;;;;7.90;4.50;;;;;;;0.92;73.51;100159.16;5059135;28;20427;-66
2021/04/06 02:03:50;;;;;;;8.07;4.10;;;;;;;1.32;73.87;100161.56;5059212;28;20415;-64
2021/04/06 02:06:16;;;;;;;10.60;5.40;;;;;;;1.22;73.58;100168.84;5059018;28;20408;-65
2021/04/06 02:08:51;;;;;;;7.93;3.40;;;;;;;1.35;72.30;100165.94;5057807;28;20900;-65
2021/04/06 02:11:26;;;;;;;7.80;4.10;;;;;;;1.45;73.12;100162.03;5058760;28;20180;-64
2021/04/06 02:13:53;;;;;;;3.53;3.23;;;;;;;0.84;73.93;100176.84;5059329;28;20465;-65
2021/04/06 02:16:18;;;;;;;4.00;3.70;;;;;;;0.64;74.71;100168.34;5069258;28;20443;-64
2021/04/06 02:18:51;;;;;;;4.40;4.00;;;;;;;0.90;74.47;100159.09;5058870;28;20412;-65
2021/04/06 02:21:16;;;;;;;6.03;4.17;;;;;;;1.12;74.03;100157.38;5067946;28;20193;-65
2021/04/06 02:23:43;;;;;;;13.30;4.10;;;;;;;0.87;75.19;100155.53;5059562;28;20829;-67
2021/04/06 02:26:11;;;;;;;4.70;3.70;;;;;;;0.90;73.81;100164.22;5058144;28;20236;-65
2021/04/06 02:28:37;;;;;;;5.93;4.17;;;;;;;1.11;73.51;100163.31;5057959;28;20482;-65
2021/04/06 02:31:04;;;;;;;6.13;3.90;;;;;;;1.25;72.81;100164.72;5058850;28;20455;-64
2021/04/06 02:33:32;;;;;;;4.13;3.70;;;;;;;1.32;73.01;100165.81;5058637;28;20169;-64
2021/04/06 02:36:03;;;;;;;4.67;3.70;;;;;;;1.43;72.62;100171.38;5058544;28;20416;-65
2021/04/06 02:38:33;;;;;;;7.47;4.10;;;;;;;1.15;73.33;100178.91;5058438;28;20860;-65
2021/04/06 02:41:17;;;;;;;6.50;3.90;;;;;;;1.39;73.19;100169.50;5058305;28;20447;-65
2021/04/06 02:43:51;;;;;;;4.50;3.57;;;;;;;1.52;74.91;100169.16;5058501;28;20470;-65
2021/04/06 02:46:20;;;;;;;4.33;3.93;;;;;;;1.34;74.98;100167.63;5058489;28;20418;-64
2021/04/06 02:48:45;;;;;;;4.10;3.80;;;;;;;1.47;74.33;100181.78;5058348;28;20435;-64
2021/04/06 02:51:12;;;;;;;9.47;5.33;;;;;;;2.07;73.34;100172.81;5058343;28;20451;-65
2021/04/06 02:53:38;;;;;;;5.20;4.17;;;;;;;2.02;73.74;100175.22;5058585;28;20185;-65
2021/04/06 02:56:05;;;;;;;10.07;4.80;;;;;;;2.64;72.09;100179.88;5057507;28;20438;-65
2021/04/06 02:58:38;;;;;;;6.77;4.67;;;;;;;2.28;73.67;100170.09;5058148;28;20412;-65
2021/04/06 03:01:13;;;;;;;9.30;5.00;;;;;;;2.10;73.44;100167.78;5058597;28;20404;-65
2021/04/06 03:03:38;;;;;;;6.13;5.50;;;;;;;2.73;70.81;100163.84;5058043;28;20412;-65
2021/04/06 03:06:08;;;;;;;12.50;6.10;;;;;;;2.67;71.11;100167.09;5058647;28;20424;-65
2021/04/06 03:08:35;;;;;;;8.23;5.97;;;;;;;2.80;70.24;100154.63;5058680;28;20235;-65
2021/04/06 03:11:01;;;;;;;8.57;5.20;;;;;;;2.52;71.80;100166.59;5058032;28;20459;-64
2021/04/06 03:13:27;;;;;;;8.30;5.40;;;;;;;2.66;71.70;100167.06;5058003;28;20427;-65
2021/04/06 03:15:56;;;;;;;11.20;6.53;;;;;;;2.32;73.01;100177.09;5058489;28;20478;-65
2021/04/06 03:18:30;;;;;;;9.80;6.53;;;;;;;2.85;72.47;100174.53;5058233;28;20420;-65
2021/04/06 03:21:07;;;;;;;10.17;7.17;;;;;;;2.68;72.29;100168.84;5059410;28;20511;-65
2021/04/06 03:23:33;;;;;;;8.67;7.20;;;;;;;2.96;71.64;100167.13;5061081;28;20452;-65
2021/04/06 03:25:59;;;;;;;7.80;6.33;;;;;;;2.41;72.87;100165.34;5061966;28;20475;-65
2021/04/06 03:28:34;;;;;;;8.20;5.90;;;;;;;2.40;73.11;100158.50;5062499;28;20495;-64
2021/04/06 03:31:13;;;;;;;7.50;5.43;;;;;;;2.66;72.33;100159.31;5061897;28;20531;-65
2021/04/06 03:33:43;;;;;;;9.57;5.47;;;;;;;2.34;73.77;100165.16;5061921;28;20706;-65
2021/04/06 03:36:20;;;;;;;9.97;6.30;;;;;;;2.20;73.71;100163.81;5062399;28;20524;-65
2021/04/06 03:38:46;;;;;;;7.70;4.50;;;;;;;2.50;73.15;100160.53;5072607;28;20418;-66
2021/04/06 03:41:12;;;;;;;6.80;5.20;;;;;;;2.46;72.47;100168.97;5073643;28;20435;-64
2021/04/06 03:43:38;;;;;;;12.87;5.00;;;;;;;2.32;72.80;100159.09;5072419;28;20412;-64
2021/04/06 03:46:04;;;;;;;9.00;4.87;;;;;;;2.10;73.41;100154.06;5063416;28;20169;-65
2021/04/06 03:48:31;;;;;;;7.57;4.90;;;;;;;2.27;72.85;100152.03;5062537;28;20441;-64
2021/04/06 03:50:57;;;;;;;7.60;4.83;;;;;;;2.44;72.61;100144.91;5061574;28;20284;-64
2021/04/06 03:53:25;;;;;;;7.00;4.30;;;;;;;2.51;71.50;100152.00;5062163;28;20877;-65
2021/04/06 03:56:03;;;;;;;8.37;5.67;;;;;;;2.59;70.89;100153.09;5062084;28;20423;-64
2021/04/06 03:58:31;;;;;;;8.27;4.97;;;;;;;2.40;72.11;100153.34;5064406;28;20412;-64
2021/04/06 04:00:56;;;;;;;6.30;4.47;;;;;;;1.98;73.71;100163.06;5068267;28;20451;-65
2021/04/06 04:03:22;;;;;;;14.97;4.90;;;;;;;2.24;73.02;100152.81;5063980;28;21165;-64
2021/04/06 04:05:50;;;;;;;5.33;4.23;;;;;;;2.35;72.74;100148.91;5062573;28;20201;-65
2021/04/06 04:08:16;;;;;;;6.30;4.40;;;;;;;2.19;73.57;100147.53;5061522;28;20178;-65
2021/04/06 04:10:41;;;;;;;7.00;4.80;;;;;;;2.54;72.00;100144.34;5061336;28;20463;-65
2021/04/06 04:13:06;;;;;;;10.03;4.90;;;;;;;2.46;72.54;100146.69;5061664;28;20162;-65
2021/04/06 04:15:32;;;;;;;9.10;4.73;;;;;;;2.45;72.10;100141.47;5061667;28;20190;-64
2021/04/06 04:17:57;;;;;;;12.43;5.73;;;;;;;2.31;73.02;100144.50;5068778;28;20181;-65
2021/04/06 04:20:23;;;;;;;11.17;8.30;;;;;;;2.29;73.33;100150.41;5061875;28;20552;-64
2021/04/06 04:22:49;;;;;;;9.43;8.20;;;;;;;2.48;73.55;100151.91;5061273;28;20169;-65
2021/04/06 04:25:15;;;;;;;9.37;7.73;;;;;;;2.47;72.51;100152.72;5060623;28;20975;-65
2021/04/06 04:27:41;;;;;;;14.30;7.40;;;;;;;2.21;73.30;100157.00;5061420;28;20423;-65
2021/04/06 04:30:08;;;;;;;11.10;6.83;;;;;;;2.27;74.74;100160.63;5060903;28;20856;-66
2021/04/06 04:32:34;;;;;;;13.33;6.33;;;;;;;2.45;73.26;100156.91;5059988;28;20442;-65
2021/04/06 04:34:59;;;;;;;8.13;5.40;;;;;;;2.43;72.41;100154.31;5061348;28;20404;-65
2021/04/06 04:37:24;;;;;;;13.03;5.70;;;;;;;2.70;71.88;100158.59;5060832;28;20216;-65
2021/04/06 04:39:50;;;;;;;12.60;5.17;;;;;;;3.05;70.21;100158.84;5060944;28;20177;-65
2021/04/06 04:42:15;;;;;;;9.80;5.03;;;;;;;2.99;70.53;100150.91;5060709;28;20280;-65
2021/04/06 04:44:41;;;;;;;9.93;5.00;;;;;;;2.82;70.38;100158.97;5059884;28;20182;-66
2021/04/06 04:47:06;;;;;;;10.50;5.47;;;;;;;2.40;71.87;100153.34;5060458;28;20181;-66
2021/04/06 04:49:31;;;;;;;13.47;5.93;;;;;;;2.16;72.73;100162.81;5060928;28;20284;-65
2021/04/06 04:51:57;;;;;;;9.30;5.23;;;;;;;2.89;70.74;100165.19;5060459;28;20273;-65
2021/04/06 04:54:22;;;;;;;10.97;4.50;;;;;;;2.60;71.41;100169.41;5060595;28;20520;-65
2021/04/06 04:56:47;;;;;;;16.07;4.63;;;;;;;2.48;72.10;100167.34;5060990;28;20192;-65
2021/04/06 04:59:13;;;;;;;11.13;4.77;;;;;;;2.69;71.13;100167.13;5060638;28;20178;-65
2021/04/06 05:01:38;;;;;;;9.23;4.93;;;;;;;3.17;69.64;100160.91;5060180;28;20185;-66
2021/04/06 05:04:03;;;;;;;10.80;5.00;;;;;;;2.77;70.20;100164.81;5060489;28;20188;-65
2021/04/06 05:06:29;;;;;;;11.87;5.73;;;;;;;2.88;69.74;100168.59;5060241;28;20169;-64
2021/04/06 05:08:54;;;;;;;17.10;5.07;;;;;;;3.25;69.37;100163.69;5060179;28;20454;-64
2021/04/06 05:11:19;;;;;;;7.47;4.90;;;;;;;3.56;68.04;100160.34;5060538;28;20204;-66
2021/04/06 05:13:46;;;;;;;13.60;5.50;;;;;;;3.05;69.62;100160.53;5060304;28;20170;-65
2021/04/06 05:16:11;;;;;;;8.90;4.80;;;;;;;3.09;69.57;100162.38;5060059;28;20446;-65
2021/04/06 05:18:37;;;;;;;11.83;5.30;;;;;;;3.63;67.85;100157.09;5059907;28;20474;-64
2021/04/06 05:21:02;;;;;;;17.13;5.50;;;;;;;3.34;69.27;100167.44;5059810;28;20205;-65
2021/04/06 05:23:27;;;;;;;13.13;4.90;;;;;;;3.56;67.43;100159.44;5059584;28;20456;-65
2021/04/06 05:25:54;;;;;;;13.37;5.07;;;;;;;3.36;68.18;100155.47;5059664;28;20230;-64
2021/04/06 05:28:19;;;;;;;9.90;4.77;;;;;;;3.62;67.09;100154.47;5059583;28;20184;-65
2021/04/06 05:30:45;;;;;;;14.60;5.07;;;;;;;3.46;67.47;100148.88;5059940;28;20455;-64
2021/04/06 05:33:10;;;;;;;9.03;5.00;;;;;;;3.29;68.14;100155.22;5059299;28;20233;-64
2021/04/06 05:35:35;;;;;;;16.33;5.47;;;;;;;3.61;67.11;100163.91;5059721;28;20535;-64
2021/04/06 05:38:01;;;;;;;10.77;5.37;;;;;;;4.12;65.73;100156.69;5060231;28;20188;-64
2021/04/06 05:40:26;;;;;;;17.23;4.87;;;;;;;4.33;64.19;100165.00;5059641;28;20178;-65
2021/04/06 05:42:51;;;;;;;14.73;5.30;;;;;;;3.99;65.57;100165.81;5059017;28;20205;-64
2021/04/06 05:45:21;;;;;;;13.83;4.67;;;;;;;4.04;64.56;100164.22;5059612;28;20173;-65
2021/04/06 05:47:51;;;;;;;9.37;4.57;;;;;;;4.52;62.71;100168.06;5059490;28;20181;-65
2021/04/06 05:50:17;;;;;;;13.53;5.53;;;;;;;4.93;61.56;100170.75;5058798;28;20491;-64
2021/04/06 05:52:43;;;;;;;14.67;5.10;;;;;;;5.17;60.76;100169.56;5059584;28;20766;-65
2021/04/06 05:55:09;;;;;;;14.33;5.00;;;;;;;5.16;60.65;100181.59;5058410;28;20275;-65
2021/04/06 05:57:35;;;;;;;11.27;4.63;;;;;;;4.70;61.89;100183.97;5059180;28;20419;-66
2021/04/06 06:00:00;;;;;;;8.50;4.87;;;;;;;4.74;62.40;100182.34;5059506;28;20170;-65
2021/04/06 06:02:26;;;;;;;9.07;4.03;;;;;;;4.21;65.56;100172.44;5059191;28;20176;-64
2021/04/06 06:04:51;;;;;;;10.77;4.27;;;;;;;4.18;64.07;100170.63;5058791;28;20225;-64
2021/04/06 06:07:17;;;;;;;12.77;4.63;;;;;;;4.55;63.47;100157.78;5059400;28;20165;-65
2021/04/06 06:09:43;;;;;;;6.70;4.10;;;;;;;5.04;61.93;100164.09;5058823;28;20225;-65
2021/04/06 06:12:12;;;;;;;10.03;4.97;;;;;;;6.61;57.00;100154.25;5059086;28;20162;-66
2021/04/06 06:14:43;;;;;;;8.83;4.80;;;;;;;5.97;57.63;100155.69;5065854;28;20459;-66
2021/04/06 06:17:12;;;;;;;7.37;4.10;;;;;;;6.05;58.47;100161.91;5059708;28;20416;-65
2021/04/06 06:19:38;;;;;;;12.43;5.00;;;;;;;6.27;57.99;100180.41;5058449;28;20829;-65
2021/04/06 06:22:17;;;;;;;9.47;4.23;;;;;;;5.84;58.67;100182.16;5059213;28;20416;-66
2021/04/06 06:24:45;;;;;;;10.60;4.00;;;;;;;5.22;60.80;100183.44;5058490;28;20176;-65
2021/04/06 06:27:22;;;;;;;14.20;4.80;;;;;;;4.66;63.17;100191.63;5058829;28;20739;-66
2021/04/06 06:29:48;;;;;;;8.13;5.53;;;;;;;4.16;65.94;100190.34;5058553;28;20493;-65
2021/04/06 06:32:21;;;;;;;8.40;4.50;;;;;;;3.90;67.84;100189.66;5058129;28;20822;-65
2021/04/06 06:34:47;;;;;;;10.20;4.80;;;;;;;4.27;66.68;100193.22;5058444;28;20211;-65
2021/04/06 06:37:27;;;;;;;13.93;5.17;;;;;;;4.13;66.32;100198.00;5058975;28;20719;-65
2021/04/06 06:39:52;;;;;;;9.97;5.37;;;;;;;3.94;66.89;100203.47;5059217;28;20445;-64
2021/04/06 06:42:19;;;;;;;26.13;14.17;;;;;;;4.02;67.86;100196.84;5059659;28;20495;-67
2021/04/06 06:44:44;;;;;;;9.67;4.17;;;;;;;4.18;67.05;100196.44;5059968;28;20258;-66
2021/04/06 06:47:12;;;;;;;7.57;4.00;;;;;;;4.93;63.72;100198.28;5059279;28;20467;-65
2021/04/06 06:49:40;;;;;;;7.60;4.00;;;;;;;8.26;53.12;100169.34;5059606;28;20221;-65
2021/04/06 06:52:28;;;;;;;10.20;5.00;;;;;;;8.66;49.43;100169.75;5058999;28;20451;-65
2021/04/06 06:55:00;;;;;;;9.33;4.40;;;;;;;9.55;46.36;100164.25;5060070;28;20480;-65
2021/04/06 06:57:43;;;;;;;5.57;3.90;;;;;;;10.98;42.52;100156.69;5064368;28;20496;-66
2021/04/06 07:00:10;;;;;;;10.40;4.20;;;;;;;10.23;44.20;100153.16;5060329;28;20436;-66
2021/04/06 07:02:36;;;;;;;8.70;4.67;;;;;;;8.83;47.62;100148.22;5058969;28;20723;-65
2021/04/06 07:05:16;;;;;;;7.43;4.30;;;;;;;8.14;49.03;100161.44;5058853;28;20416;-66
2021/04/06 07:07:59;;;;;;;10.67;4.47;;;;;;;6.11;56.23;100168.91;5058647;28;20420;-66
2021/04/06 07:10:27;;;;;;;9.70;4.20;;;;;;;5.28;57.87;100167.22;5058977;28;20460;-67
2021/04/06 07:13:03;;;;;;;10.10;4.43;;;;;;;5.48;57.09;100184.03;5058976;28;20412;-65
2021/04/06 07:15:29;;;;;;;11.30;4.50;;;;;;;4.96;58.21;100177.69;5058836;28;20840;-65
2021/04/06 07:18:06;;;;;;;11.07;4.30;;;;;;;4.01;62.35;100190.81;5057541;28;20428;-66
2021/04/06 07:20:34;;;;;;;11.37;5.53;;;;;;;3.22;66.19;100197.09;5057908;28;20231;-65
2021/04/06 07:23:03;;;;;;;11.20;5.13;;;;;;;2.83;68.84;100208.78;5057337;28;20416;-65
2021/04/06 07:25:29;;;;;;;14.13;4.30;;;;;;;3.27;68.47;100198.97;5057867;28;20459;-64
2021/04/06 07:27:54;;;;;;;10.27;4.70;;;;;;;3.63;67.20;100200.06;5057915;28;20443;-64
2021/04/06 07:30:20;;;;;;;9.70;5.00;;;;;;;3.92;67.27;100189.69;5057795;28;20212;-65
2021/04/06 07:32:46;;;;;;;11.27;4.40;;;;;;;3.17;67.78;100182.38;5057288;28;20184;-65
2021/04/06 07:35:11;;;;;;;7.40;4.40;;;;;;;3.32;68.42;100170.81;5057650;28;20227;-65
2021/04/06 07:37:41;;;;;;;9.43;4.37;;;;;;;4.12;65.73;100161.84;5058218;28;20166;-66
2021/04/06 07:40:10;;;;;;;8.07;4.40;;;;;;;3.92;65.16;100163.91;5053283;28;20182;-64
2021/04/06 07:42:38;;;;;;;9.03;4.60;;;;;;;6.42;57.80;100153.06;5037749;28;20421;-66
2021/04/06 07:45:06;;;;;;;8.77;3.83;;;;;;;7.49;53.80;100155.50;5037109;28;20822;-66
2021/04/06 07:47:37;;;;;;;4.60;3.37;;;;;;;7.78;50.51;100155.88;5039348;28;20409;-65
2021/04/06 07:50:06;;;;;;;10.40;3.30;;;;;;;8.54;50.14;100135.88;5058162;28;20877;-66
2021/04/06 07:52:31;;;;;;;5.33;3.60;;;;;;;9.99;47.13;100139.22;5056864;28;20423;-66
2021/04/06 07:54:56;;;;;;;5.87;3.40;;;;;;;10.96;45.28;100125.38;5057639;28;20503;-66
2021/04/06 07:57:41;;;;;;;12.10;3.87;;;;;;;11.83;42.42;100135.53;5058148;28;20162;-66
2021/04/06 08:00:06;;;;;;;5.87;3.50;;;;;;;10.44;44.53;100131.50;5057130;28;20268;-67
2021/04/06 08:02:32;;;;;;;7.90;3.40;;;;;;;10.21;44.89;100136.66;5057515;28;20509;-65
2021/04/06 08:04:59;;;;;;;5.63;3.70;;;;;;;9.71;47.27;100136.53;5057556;28;20465;-65
2021/04/06 08:07:34;;;;;;;5.90;3.60;;;;;;;10.39;42.88;100143.66;5059688;28;20166;-66
2021/04/06 08:10:20;;;;;;;5.93;3.30;;;;;;;9.07;46.70;100142.31;5061298;28;20459;-67
2021/04/06 08:12:46;;;;;;;6.50;3.77;;;;;;;9.79;44.77;100133.97;5068732;28;20652;-68
2021/04/06 08:15:16;;;;;;;7.73;3.63;;;;;;;8.75;45.59;100135.16;5060599;28;20467;-66
2021/04/06 08:17:52;;;;;;;7.27;4.23;;;;;;;8.16;48.87;100137.22;5060936;28;20406;-65
2021/04/06 08:20:29;;;;;;;8.13;3.80;;;;;;;8.33;49.84;100132.19;5060063;28;20534;-69
2021/04/06 08:23:00;;;;;;;9.00;4.00;;;;;;;7.98;50.23;100134.44;5060546;28;20454;-70
2021/04/06 08:25:29;;;;;;;8.13;4.30;;;;;;;8.26;49.92;100131.25;5059847;28;20460;-70
2021/04/06 08:27:59;;;;;;;10.70;4.60;;;;;;;6.96;52.43;100136.66;5058850;28;20444;-69
2021/04/06 08:30:25;;;;;;;9.97;4.10;;;;;;;6.62;53.45;100141.31;5059492;28;20518;-69
2021/04/06 08:32:59;;;;;;;12.57;4.50;;;;;;;6.28;55.82;100158.88;5060842;28;20418;-70
2021/04/06 08:35:43;;;;;;;6.10;3.67;;;;;;;4.96;61.38;100170.81;5063637;28;20408;-71
2021/04/06 08:38:20;;;;;;;10.17;3.63;;;;;;;5.19;60.75;100165.28;5067042;28;20408;-69
2021/04/06 08:40:47;;;;;;;8.27;3.43;;;;;;;4.86;61.29;100174.03;5061051;28;20739;-69
2021/04/06 08:43:14;;;;;;;4.73;3.50;;;;;;;4.99;62.55;100170.91;5061253;28;20420;-69
2021/04/06 08:45:55;;;;;;;5.90;3.10;;;;;;;4.74;64.83;100172.03;5060659;28;20416;-69
2021/04/06 08:48:46;;;;;;;7.33;3.17;;;;;;;4.65;64.27;100172.66;5061403;28;20434;-70
2021/04/06 08:51:19;;;;;;;5.30;3.50;;;;;;;5.22;62.90;100168.84;5060924;28;20542;-69
2021/04/06 08:53:46;;;;;;;6.17;3.30;;;;;;;5.10;63.06;100163.41;5060757;28;20455;-70
2021/04/06 08:56:16;;;;;;;5.10;3.57;;;;;;;5.09;62.18;100165.91;5060911;28;20432;-69
2021/04/06 08:58:42;;;;;;;4.03;2.97;;;;;;;4.70;63.75;100175.38;5062817;28;20451;-66
2021/04/06 09:01:07;;;;;;;6.00;3.60;;;;;;;5.20;62.23;100164.47;5064576;28;20810;-66
2021/04/06 09:03:34;;;;;;;5.27;3.33;;;;;;;5.23;62.32;100169.69;5064826;28;20432;-70
2021/04/06 09:06:11;;;;;;;6.93;3.70;;;;;;;4.94;62.85;100177.66;5065528;28;20229;-67
2021/04/06 09:08:47;;;;;;;4.77;3.30;;;;;;;4.65;63.51;100179.53;5062930;28;20422;-67
2021/04/06 09:11:19;;;;;;;8.70;4.20;;;;;;;4.61;64.25;100188.91;5062212;28;20455;-67
2021/04/06 09:13:44;;;;;;;4.37;3.30;;;;;;;4.53;65.14;100182.69;5062000;28;20537;-68
2021/04/06 09:16:10;;;;;;;6.13;3.30;;;;;;;4.22;65.78;100180.19;5061741;28;20826;-67
2021/04/06 09:18:37;;;;;;;7.07;4.00;;;;;;;3.90;67.06;100181.91;5061155;28;20207;-68
2021/04/06 09:21:06;;;;;;;5.40;3.60;;;;;;;3.76;66.66;100183.22;5063417;28;20170;-68
2021/04/06 09:23:33;;;;;;;2.90;2.60;;;;;;;3.67;67.21;100176.13;5079211;28;20412;-67
2021/04/06 09:25:58;;;;;;;6.77;3.20;;;;;;;3.60;67.58;100185.38;5077240;28;20460;-66
2021/04/06 09:28:23;;;;;;;5.13;3.30;;;;;;;4.09;66.53;100185.88;5060504;28;20434;-68
2021/04/06 09:30:49;;;;;;;4.33;3.27;;;;;;;3.53;67.69;100184.31;5061154;28;20212;-68
2021/04/06 09:33:17;;;;;;;4.60;2.87;;;;;;;4.03;67.48;100178.84;5060287;28;20170;-68
2021/04/06 09:35:50;;;;;;;4.53;3.40;;;;;;;4.53;65.40;100159.44;5055464;28;20571;-71
2021/04/06 09:38:20;;;;;;;7.90;3.60;;;;;;;4.64;64.70;100163.19;5055088;28;20467;-66
2021/04/06 09:40:46;;;;;;;7.03;3.40;;;;;;;5.53;62.64;100159.16;5051664;28;20474;-65
2021/04/06 09:43:11;;;;;;;7.20;3.83;;;;;;;7.55;55.89;100151.28;5067607;28;20448;-66
2021/04/06 09:45:37;;;;;;;5.23;3.30;;;;;;;8.71;52.75;100147.28;5064345;28;20585;-65
2021/04/06 09:48:04;;;;;;;4.10;3.70;;;;;;;7.58;55.17;100158.22;5057906;28;20548;-65
2021/04/06 09:50:29;;;;;;;10.50;4.60;;;;;;;5.46;63.17;100171.91;5059316;28;20484;-66
2021/04/06 09:52:55;;;;;;;7.13;3.87;;;;;;;5.36;63.58;100176.00;5051191;28;20754;-66
2021/04/06 09:55:22;;;;;;;8.70;3.87;;;;;;;6.46;60.80;100162.63;5059365;28;20222;-65
2021/04/06 09:57:51;;;;;;;8.77;3.70;;;;;;;7.55;56.95;100163.34;5060501;28;20829;-65
2021/04/06 10:00:19;;;;;;;7.80;3.97;;;;;;;6.20;60.95;100168.22;5061998;28;20436;-65
2021/04/06 10:03:07;;;;;;;7.90;3.80;;;;;;;5.08;64.10;100164.19;5059097;28;20412;-65
2021/04/06 10:05:34;;;;;;;7.30;3.73;;;;;;;3.87;69.23;100176.69;5047324;28;20455;-64
2021/04/06 10:07:59;;;;;;;5.10;3.50;;;;;;;3.19;71.16;100174.69;5054084;28;20718;-67
2021/04/06 10:10:27;;;;;;;8.80;3.60;;;;;;;3.70;70.15;100168.47;5097175;28;20463;-66
2021/04/06 10:12:53;;;;;;;6.63;3.47;;;;;;;3.74;71.03;100165.13;5053445;28;20304;-67
2021/04/06 10:15:24;;;;;;;8.67;3.90;;;;;;;3.57;71.30;100162.06;5058623;28;20496;-67
2021/04/06 10:17:50;;;;;;;8.47;4.53;;;;;;;4.07;68.99;100160.84;5052234;28;20443;-66
2021/04/06 10:20:40;;;;;;;6.33;4.10;;;;;;;4.31;68.29;100152.88;5043378;28;20428;-66
2021/04/06 10:23:06;;;;;;;5.30;4.80;;;;;;;4.86;66.71;100158.53;5049562;28;20871;-70
2021/04/06 10:25:37;;;;;;;5.73;4.13;;;;;;;4.54;66.60;100149.16;5063204;28;20471;-68
2021/04/06 10:28:08;;;;;;;7.50;4.10;;;;;;;5.14;64.68;100152.28;5057402;28;20189;-68
2021/04/06 10:30:46;;;;;;;11.60;4.13;;;;;;;5.37;62.76;100137.28;5057740;28;20582;-66
2021/04/06 10:33:14;;;;;;;9.40;3.60;;;;;;;5.96;62.75;100128.06;5058180;28;20729;-69
2021/04/06 10:35:44;;;;;;;7.37;3.70;;;;;;;6.61;59.79;100126.63;5071658;28;20433;-68
2021/04/06 10:38:24;;;;;;;9.60;3.97;;;;;;;7.62;56.57;100120.19;5075142;28;20411;-68
2021/04/06 10:41:15;;;;;;;3.63;3.30;;;;;;;8.45;54.76;100094.19;5051589;28;20522;-69
2021/04/06 10:43:47;;;;;;;4.63;3.43;;;;;;;9.04;52.81;100092.91;5052760;28;20444;-68
2021/04/06 10:46:24;;;;;;;9.27;3.93;;;;;;;8.49;54.06;100093.41;5055029;28;20424;-69
2021/04/06 10:48:52;;;;;;;4.10;3.70;;;;;;;10.20;50.63;100091.50;5056705;28;20823;-67
2021/04/06 10:51:20;;;;;;;6.17;4.10;;;;;;;8.84;53.63;100095.38;5058040;28;20558;-68
2021/04/06 10:53:53;;;;;;;7.63;4.03;;;;;;;8.13;54.18;100110.34;5055575;28;20448;-67
2021/04/06 10:56:31;;;;;;;4.90;3.70;;;;;;;7.50;56.51;100113.16;5052199;28;20532;-66
2021/04/06 10:59:06;;;;;;;8.77;3.40;;;;;;;4.58;67.92;100144.09;5054741;28;20431;-66
2021/04/06 11:01:41;;;;;;;7.83;5.37;;;;;;;4.49;67.41;100145.63;5054677;28;20438;-66
2021/04/06 11:04:17;;;;;;;3.70;2.90;;;;;;;4.49;66.55;100142.13;5047866;28;20474;-66
2021/04/06 11:07:03;;;;;;;6.70;2.77;;;;;;;4.60;65.15;100137.25;5038134;28;20451;-67
2021/04/06 11:09:36;;;;;;;5.77;3.47;;;;;;;4.82;65.42;100126.59;5047797;28;20750;-67
2021/04/06 11:12:03;;;;;;;7.63;3.57;;;;;;;5.65;62.76;100101.63;5058602;28;20755;-66
2021/04/06 11:14:30;;;;;;;4.03;2.83;;;;;;;6.55;59.34;100095.47;5051812;28;20440;-67
2021/04/06 11:16:57;;;;;;;4.70;3.00;;;;;;;6.34;58.69;100098.56;5038506;28;20413;-68
2021/04/06 11:19:27;;;;;;;5.50;2.83;;;;;;;6.32;57.67;100092.47;5037962;28;20449;-67
2021/04/06 11:21:55;;;;;;;3.57;3.23;;;;;;;6.26;60.97;100092.38;5039017;28;20907;-68
2021/04/06 11:24:23;;;;;;;3.83;3.20;;;;;;;6.58;59.22;100092.91;5056118;28;20484;-66
2021/04/06 11:26:49;;;;;;;2.77;2.43;;;;;;;5.72;60.21;100097.44;5049757;28;20467;-67
2021/04/06 11:29:16;;;;;;;2.90;2.67;;;;;;;5.24;61.61;100093.91;5081263;28;20458;-65
2021/04/06 11:31:45;;;;;;;4.33;2.47;;;;;;;4.35;62.15;100079.88;5037663;28;20529;-67
2021/04/06 11:34:12;;;;;;;4.53;2.83;;;;;;;4.48;62.88;100086.19;5089450;28;20466;-67
2021/04/06 11:36:37;;;;;;;4.23;3.10;;;;;;;5.58;59.89;100086.84;5056143;28;20415;-68
2021/04/06 11:39:06;;;;;;;5.27;3.20;;;;;;;6.74;56.45;100073.28;5053743;28;20796;-67
2021/04/06 11:41:32;;;;;;;4.77;2.90;;;;;;;7.96;52.97;100066.09;5057806;28;20169;-67